Time;durP1;ratioP1;P1;durP2;ratioP2;P2;SDS_P1;SDS_P2;PMS_P1;PMS_P2;Temp;Humidity;BMP_temperature;BMP_pressure;BME280_temperature;BME280_humidity;BME280_pressure;Samples;Min_cycle;Max_cycle;Signal;HPM_P1;HPM_P2
2021/06/08 00:01:08;;;;;;;39.47;27.87;;;18.50;97.20;;;;;;8382961;28;20259;-76
2021/06/08 00:05:10;;;;;;;41.10;28.27;;;18.40;97.40;;;;;;8382218;28;20217;-76
2021/06/08 00:09:10;;;;;;;40.30;30.67;;;18.40;97.40;;;;;;8384840;28;20252;-76
2021/06/08 00:13:11;;;;;;;45.83;28.40;;;18.40;97.50;;;;;;8397828;28;20445;-76
2021/06/08 00:17:12;;;;;;;40.33;27.60;;;18.30;97.60;;;;;;8387019;28;20198;-76
2021/06/08 00:21:13;;;;;;;39.63;27.73;;;18.20;97.60;;;;;;8386155;28;20184;-76
2021/06/08 00:25:17;;;;;;;37.63;27.30;;;18.20;97.70;;;;;;8382451;28;20463;-76
2021/06/08 00:29:17;;;;;;;40.37;29.20;;;18.10;97.80;;;;;;8384554;28;20190;-76
2021/06/08 00:33:18;;;;;;;41.40;30.47;;;18.10;97.90;;;;;;8378010;28;20437;-76
2021/06/08 00:37:18;;;;;;;46.00;32.40;;;18.00;97.90;;;;;;8382585;28;20184;-76
2021/06/08 00:41:31;;;;;;;43.07;29.73;;;17.90;98.00;;;;;;8382486;28;20184;-76
2021/06/08 00:45:32;;;;;;;45.30;30.60;;;17.90;98.10;;;;;;8396909;28;20204;-77
2021/06/08 00:49:33;;;;;;;48.17;30.50;;;17.90;98.10;;;;;;8393196;28;20474;-77
2021/06/08 00:53:33;;;;;;;43.37;28.70;;;17.90;98.20;;;;;;8377737;28;20182;-77
2021/06/08 00:57:34;;;;;;;46.40;28.90;;;18.00;98.20;;;;;;8385734;28;20277;-77
2021/06/08 01:01:36;;;;;;;43.20;29.30;;;18.00;98.20;;;;;;8389220;28;20547;-76
2021/06/08 01:05:38;;;;;;;46.57;31.17;;;18.00;98.20;;;;;;8378433;28;20764;-76
2021/06/08 01:09:41;;;;;;;42.50;28.67;;;17.90;98.10;;;;;;8377471;28;20437;-75
2021/06/08 01:13:44;;;;;;;40.93;27.70;;;17.90;98.20;;;;;;8373656;28;20505;-76
2021/06/08 01:17:45;;;;;;;43.13;29.90;;;18.00;98.20;;;;;;8379031;28;20477;-75
2021/06/08 01:21:46;;;;;;;41.20;27.50;;;18.00;98.20;;;;;;8375940;28;20447;-75
2021/06/08 01:25:46;;;;;;;44.37;28.57;;;18.00;98.20;;;;;;8365007;28;20239;-76
2021/06/08 01:29:52;;;;;;;44.03;27.67;;;18.10;98.20;;;;;;8377819;28;20182;-74
2021/06/08 01:33:56;;;;;;;38.50;28.10;;;18.10;98.20;;;;;;8375903;28;20267;-74
2021/06/08 01:37:56;;;;;;;41.50;30.43;;;18.10;98.20;;;;;;8377644;28;21075;-75
2021/06/08 01:41:58;;;;;;;39.33;28.03;;;18.10;98.10;;;;;;8376173;28;20917;-75
2021/06/08 01:45:59;;;;;;;43.27;28.57;;;18.20;98.10;;;;;;8370587;28;20311;-76
2021/06/08 01:49:59;;;;;;;45.00;31.77;;;18.20;98.10;;;;;;8383780;28;20457;-75
2021/06/08 01:54:10;;;;;;;45.70;31.03;;;18.20;98.00;;;;;;8372692;28;20573;-75
2021/06/08 01:58:22;;;;;;;44.60;30.53;;;18.20;98.00;;;;;;8369930;28;20209;-75
2021/06/08 02:02:56;;;;;;;39.03;28.10;;;18.20;98.00;;;;;;8372400;28;20529;-74
2021/06/08 02:07:09;;;;;;;44.37;31.27;;;18.20;98.00;;;;;;8352833;28;20473;-74
2021/06/08 02:11:36;;;;;;;46.90;30.87;;;18.20;98.00;;;;;;8394461;28;20437;-74
2021/06/08 02:15:48;;;;;;;48.47;31.20;;;18.10;98.10;;;;;;8388564;28;20439;-74
2021/06/08 02:19:51;;;;;;;53.70;34.10;;;18.10;98.10;;;;;;8377319;28;20443;-74
2021/06/08 02:23:54;;;;;;;53.10;35.43;;;18.10;98.20;;;;;;8375627;28;20447;-74
2021/06/08 02:27:57;;;;;;;58.30;36.17;;;18.00;98.40;;;;;;8377860;28;20475;-75
2021/06/08 02:32:03;;;;;;;60.37;36.93;;;18.00;98.40;;;;;;8376577;28;20578;-74
2021/06/08 02:36:05;;;;;;;53.57;35.73;;;18.00;98.40;;;;;;8366903;28;20443;-74
2021/06/08 02:40:07;;;;;;;62.00;36.70;;;18.10;98.40;;;;;;8366604;28;20436;-74
2021/06/08 02:44:12;;;;;;;51.23;37.27;;;18.10;98.40;;;;;;8385493;28;20434;-73
2021/06/08 02:48:16;;;;;;;64.43;37.40;;;18.10;98.30;;;;;;8379701;28;20992;-75
2021/06/08 02:52:19;;;;;;;54.87;37.40;;;18.10;98.20;;;;;;8368863;28;20450;-74
2021/06/08 02:56:20;;;;;;;54.70;38.47;;;18.10;98.30;;;;;;8375964;28;20443;-74
2021/06/08 03:00:22;;;;;;;63.00;40.33;;;18.10;98.30;;;;;;8381707;28;20953;-74
2021/06/08 03:04:28;;;;;;;61.93;37.40;;;18.10;98.30;;;;;;8385541;28;20443;-75
2021/06/08 03:08:36;;;;;;;61.70;41.40;;;18.10;98.30;;;;;;8381010;28;20497;-75
2021/06/08 03:12:44;;;;;;;72.23;42.13;;;18.10;98.30;;;;;;8372843;28;20441;-74
2021/06/08 03:16:58;;;;;;;64.33;41.07;;;18.10;98.40;;;;;;8376976;28;20461;-74
2021/06/08 03:21:18;;;;;;;61.73;40.00;;;18.00;98.40;;;;;;8378639;28;20503;-74
2021/06/08 03:25:20;;;;;;;78.43;43.37;;;18.00;98.40;;;;;;8373308;28;20459;-74
2021/06/08 03:29:22;;;;;;;81.60;43.33;;;17.90;98.40;;;;;;8376475;28;20437;-75
2021/06/08 03:33:25;;;;;;;64.73;42.80;;;17.90;98.50;;;;;;8384121;28;20938;-74
2021/06/08 03:37:26;;;;;;;64.83;40.37;;;17.90;98.60;;;;;;8380842;28;20495;-74
2021/06/08 03:41:27;;;;;;;68.20;42.03;;;17.90;98.60;;;;;;8367946;28;20439;-74
2021/06/08 03:45:28;;;;;;;60.30;41.60;;;17.90;98.60;;;;;;8375147;28;20472;-74
2021/06/08 03:49:32;;;;;;;71.53;40.47;;;18.00;98.60;;;;;;8375950;28;20552;-75
2021/06/08 03:53:33;;;;;;;70.17;41.97;;;18.00;98.50;;;;;;8380850;28;20176;-75
2021/06/08 03:57:39;;;;;;;66.33;42.00;;;18.00;98.50;;;;;;8375582;28;20442;-75
2021/06/08 04:01:41;;;;;;;75.70;43.83;;;18.10;98.70;;;;;;8377290;28;20341;-75
2021/06/08 04:05:49;;;;;;;66.07;41.70;;;18.10;98.40;;;;;;8376320;28;20469;-75
2021/06/08 04:09:50;;;;;;;67.30;42.07;;;18.20;98.40;;;;;;8380915;28;20438;-75
2021/06/08 04:13:55;;;;;;;71.90;45.10;;;18.20;98.30;;;;;;8382157;28;20443;-76
2021/06/08 04:17:57;;;;;;;68.20;44.27;;;18.30;98.20;;;;;;8374273;28;20438;-75
2021/06/08 04:21:57;;;;;;;62.67;40.50;;;18.30;98.20;;;;;;8366469;28;20517;-75
2021/06/08 04:25:58;;;;;;;71.93;42.73;;;18.40;98.20;;;;;;8378756;28;20507;-75
2021/06/08 04:29:59;;;;;;;66.00;41.87;;;18.40;98.10;;;;;;8370361;28;20182;-75
2021/06/08 04:34:00;;;;;;;63.83;39.10;;;18.40;98.00;;;;;;8378395;28;20527;-74
2021/06/08 04:38:01;;;;;;;60.23;41.00;;;18.40;98.00;;;;;;8377187;28;20187;-74
2021/06/08 04:42:02;;;;;;;63.57;36.90;;;18.40;98.00;;;;;;8369069;28;20195;-75
2021/06/08 04:46:07;;;;;;;61.03;38.33;;;18.50;98.10;;;;;;8366705;28;20294;-75
2021/06/08 04:50:13;;;;;;;53.57;35.60;;;18.50;98.00;;;;;;8363501;28;20461;-74
2021/06/08 04:54:20;;;;;;;59.23;37.60;;;18.70;98.00;;;;;;8379133;28;20472;-75
2021/06/08 04:58:22;;;;;;;65.27;36.90;;;18.70;97.90;;;;;;8367941;28;20532;-76
2021/06/08 05:02:40;;;;;;;61.07;38.37;;;18.90;97.80;;;;;;8368732;28;20967;-76
2021/06/08 05:06:48;;;;;;;51.37;33.53;;;19.00;97.60;;;;;;8375084;28;20507;-76
2021/06/08 05:10:49;;;;;;;52.30;37.43;;;19.10;97.40;;;;;;8379194;28;20919;-75
2021/06/08 05:14:52;;;;;;;54.00;34.60;;;19.30;97.20;;;;;;8380969;28;20750;-75
2021/06/08 05:18:54;;;;;;;46.93;33.13;;;19.40;97.10;;;;;;8377234;28;20178;-76
2021/06/08 05:22:55;;;;;;;54.73;35.23;;;19.60;96.90;;;;;;8372932;28;20454;-75
2021/06/08 05:26:56;;;;;;;56.13;36.83;;;19.60;96.70;;;;;;8366729;28;21064;-75
2021/06/08 05:31:02;;;;;;;51.10;32.90;;;19.70;96.60;;;;;;8366650;28;20445;-75
2021/06/08 05:35:06;;;;;;;64.10;39.17;;;19.90;96.40;;;;;;8377765;28;20179;-77
2021/06/08 05:39:09;;;;;;;46.23;33.00;;;20.00;96.40;;;;;;8378521;28;20798;-75
2021/06/08 05:43:10;;;;;;;54.53;34.80;;;20.10;96.40;;;;;;8368459;28;20518;-75
2021/06/08 05:47:11;;;;;;;50.10;34.80;;;20.30;96.10;;;;;;8366201;28;20468;-75
2021/06/08 05:51:12;;;;;;;61.37;37.10;;;20.40;95.80;;;;;;8367596;28;20277;-75
2021/06/08 05:55:14;;;;;;;53.77;36.70;;;20.50;95.50;;;;;;8363139;28;20240;-75
2021/06/08 05:59:15;;;;;;;48.93;33.13;;;20.60;95.40;;;;;;8366502;28;20437;-75
2021/06/08 06:03:17;;;;;;;49.03;33.10;;;20.80;95.10;;;;;;8362915;28;20562;-76
2021/06/08 06:07:18;;;;;;;50.80;33.80;;;21.00;95.00;;;;;;8364481;28;20844;-76
2021/06/08 06:11:19;;;;;;;50.97;37.00;;;21.20;94.70;;;;;;8360278;28;21051;-77
2021/06/08 06:15:21;;;;;;;51.50;34.80;;;21.40;94.40;;;;;;8360521;28;20496;-75
2021/06/08 06:19:26;;;;;;;58.10;36.10;;;21.60;94.30;;;;;;8368774;28;21009;-75
2021/06/08 06:23:27;;;;;;;52.00;35.27;;;21.80;93.90;;;;;;8377744;28;20453;-75
2021/06/08 06:27:30;;;;;;;62.07;37.00;;;22.20;93.40;;;;;;8370863;28;20469;-75
2021/06/08 06:31:31;;;;;;;45.13;33.07;;;22.30;93.40;;;;;;8378679;28;20927;-75
2021/06/08 06:35:33;;;;;;;49.83;35.87;;;22.50;93.20;;;;;;8376358;28;20437;-75
2021/06/08 06:39:36;;;;;;;54.63;36.87;;;22.70;92.70;;;;;;8389354;28;20449;-75
2021/06/08 06:43:39;;;;;;;55.90;36.17;;;22.90;92.60;;;;;;8379006;28;20426;-76
2021/06/08 06:47:41;;;;;;;49.83;34.87;;;23.20;92.30;;;;;;8383177;28;21019;-75
2021/06/08 06:51:45;;;;;;;49.10;35.57;;;23.30;92.40;;;;;;8375672;28;21009;-75
2021/06/08 06:55:50;;;;;;;53.17;34.47;;;23.50;91.70;;;;;;8385268;28;20480;-75
2021/06/08 06:59:51;;;;;;;51.50;35.50;;;23.60;91.70;;;;;;8379786;28;20414;-76
2021/06/08 07:03:57;;;;;;;53.97;35.60;;;23.70;91.40;;;;;;8374801;28;20440;-76
2021/06/08 07:08:02;;;;;;;50.97;33.70;;;23.70;91.40;;;;;;8375110;28;20287;-76
2021/06/08 07:12:06;;;;;;;43.93;33.27;;;23.70;91.40;;;;;;8385565;28;20407;-76
2021/06/08 07:16:06;;;;;;;52.37;34.80;;;23.80;91.30;;;;;;8369193;28;20414;-76
2021/06/08 07:20:10;;;;;;;56.77;34.33;;;24.20;91.10;;;;;;8395655;28;20437;-76
2021/06/08 07:24:12;;;;;;;45.77;33.40;;;24.50;90.60;;;;;;8371411;28;20182;-76
2021/06/08 07:28:12;;;;;;;44.80;33.97;;;24.60;90.20;;;;;;8374204;28;20446;-75
2021/06/08 07:32:21;;;;;;;42.37;31.67;;;24.70;90.00;;;;;;8379342;28;20438;-75
2021/06/08 07:36:28;;;;;;;50.93;33.33;;;25.00;89.70;;;;;;8382496;28;20182;-76
2021/06/08 07:40:35;;;;;;;37.67;26.80;;;25.40;89.10;;;;;;8369175;28;21105;-76
2021/06/08 07:44:51;;;;;;;44.37;31.37;;;25.70;88.10;;;;;;8364037;28;20436;-75
2021/06/08 07:48:54;;;;;;;41.87;29.63;;;26.00;87.10;;;;;;8364218;28;20512;-75
2021/06/08 07:52:55;;;;;;;41.53;29.40;;;26.30;86.70;;;;;;8363359;28;20506;-75
2021/06/08 07:56:57;;;;;;;38.13;30.57;;;26.40;86.00;;;;;;8378799;28;20441;-75
2021/06/08 08:00:59;;;;;;;39.80;28.63;;;26.60;85.00;;;;;;8359763;28;20984;-74
2021/06/08 08:05:08;;;;;;;37.70;29.87;;;26.70;84.10;;;;;;8364949;28;20532;-75
2021/06/08 08:09:08;;;;;;;44.20;31.07;;;26.70;84.20;;;;;;8362592;28;20510;-75
2021/06/08 08:13:09;;;;;;;43.30;29.60;;;26.70;83.70;;;;;;8382992;28;20448;-75
2021/06/08 08:17:14;;;;;;;36.17;27.43;;;26.50;84.00;;;;;;8371880;28;21110;-75
2021/06/08 08:21:19;;;;;;;36.43;27.87;;;26.60;84.10;;;;;;8371890;28;20191;-76
2021/06/08 08:25:22;;;;;;;42.80;28.70;;;26.70;84.00;;;;;;8394486;28;20471;-75
2021/06/08 08:29:23;;;;;;;32.60;25.93;;;27.00;82.20;;;;;;8379971;28;20521;-76
2021/06/08 08:33:26;;;;;;;33.10;25.70;;;27.20;81.50;;;;;;8364358;28;20494;-77
2021/06/08 08:37:29;;;;;;;33.07;27.23;;;27.20;80.90;;;;;;8381929;28;20650;-77
2021/06/08 08:41:33;;;;;;;38.20;27.73;;;27.10;80.50;;;;;;8391211;28;20448;-77
2021/06/08 08:45:34;;;;;;;35.23;27.10;;;27.10;81.30;;;;;;8374103;28;20827;-76
2021/06/08 08:49:34;;;;;;;34.03;25.30;;;27.00;81.40;;;;;;8368328;28;20812;-76
2021/06/08 08:53:36;;;;;;;32.77;26.50;;;27.40;81.50;;;;;;8364257;28;20894;-75
2021/06/08 08:57:47;;;;;;;30.70;23.23;;;27.70;79.70;;;;;;8378561;28;20702;-74
2021/06/08 09:01:50;;;;;;;30.80;24.77;;;27.90;78.80;;;;;;8369142;28;20437;-75
2021/06/08 09:05:55;;;;;;;29.90;23.13;;;28.20;77.00;;;;;;8360173;28;20469;-76
2021/06/08 09:09:56;;;;;;;31.70;23.53;;;28.20;76.80;;;;;;8359752;28;20436;-76
2021/06/08 09:13:57;;;;;;;27.07;20.93;;;28.00;76.10;;;;;;8357645;28;20468;-76
2021/06/08 09:17:59;;;;;;;23.53;19.63;;;27.50;76.00;;;;;;8373487;28;20182;-76
2021/06/08 09:22:00;;;;;;;21.00;18.50;;;27.20;77.30;;;;;;8372871;28;20441;-75
2021/06/08 09:26:00;;;;;;;18.23;14.27;;;27.10;78.00;;;;;;8355750;28;20554;-75
2021/06/08 09:30:13;;;;;;;16.70;13.43;;;27.20;75.80;;;;;;8355276;28;20459;-75
2021/06/08 09:34:14;;;;;;;15.60;12.73;;;27.20;75.70;;;;;;8359314;28;20623;-75
2021/06/08 09:38:14;;;;;;;23.13;12.80;;;27.80;74.40;;;;;;8374865;28;21010;-76
2021/06/08 09:42:19;;;;;;;12.70;11.40;;;28.60;72.10;;;;;;8358246;28;20210;-76
2021/06/08 09:46:20;;;;;;;17.93;13.53;;;29.60;69.00;;;;;;8366110;28;20206;-76
2021/06/08 09:50:29;;;;;;;12.03;10.77;;;30.20;68.70;;;;;;8368866;28;20553;-75
2021/06/08 09:54:45;;;;;;;12.40;9.77;;;30.60;67.10;;;;;;8371026;28;20182;-75
2021/06/08 09:58:53;;;;;;;12.67;11.47;;;30.50;66.20;;;;;;8371758;28;20440;-75
2021/06/08 10:02:54;;;;;;;17.00;12.73;;;29.80;64.10;;;;;;8359178;28;20563;-76
2021/06/08 10:06:54;;;;;;;14.40;12.40;;;29.10;64.80;;;;;;8366696;28;20464;-76
2021/06/08 10:10:59;;;;;;;17.07;14.77;;;29.30;65.70;;;;;;8375957;28;20190;-76
2021/06/08 10:15:10;;;;;;;10.23;9.23;;;29.90;65.90;;;;;;8372276;28;20182;-76
2021/06/08 10:19:23;;;;;;;11.57;10.67;;;30.40;62.90;;;;;;8379236;28;20440;-76
2021/06/08 10:23:25;;;;;;;10.97;9.97;;;31.30;61.80;;;;;;8359450;28;20433;-74
2021/06/08 10:27:25;;;;;;;11.80;10.80;;;31.70;60.00;;;;;;8361614;28;20460;-74
2021/06/08 10:31:26;;;;;;;15.37;14.07;;;31.30;60.10;;;;;;8360217;28;20448;-75
2021/06/08 10:35:27;;;;;;;15.97;14.50;;;30.60;59.00;;;;;;8359211;28;20212;-75
2021/06/08 10:39:29;;;;;;;18.33;16.33;;;29.90;59.90;;;;;;8360040;28;20187;-75
2021/06/08 10:43:35;;;;;;;16.70;14.97;;;29.20;60.80;;;;;;8353753;28;20202;-75
2021/06/08 10:47:54;;;;;;;24.90;16.30;;;28.80;62.20;;;;;;8379416;28;20499;-74
2021/06/08 10:52:06;;;;;;;19.97;17.80;;;28.60;63.90;;;;;;8376443;28;20443;-76
2021/06/08 10:56:31;;;;;;;21.53;16.27;;;28.60;64.50;;;;;;8364379;28;20451;-75
2021/06/08 11:00:33;;;;;;;18.10;16.23;;;28.20;64.10;;;;;;8371124;28;21056;-74
2021/06/08 11:04:49;;;;;;;18.43;15.77;;;28.00;65.30;;;;;;8380469;28;20494;-76
2021/06/08 11:09:02;;;;;;;20.27;18.00;;;28.20;65.60;;;;;;8366758;28;20480;-76
2021/06/08 11:13:12;;;;;;;23.30;21.00;;;28.60;64.60;;;;;;8356609;28;20433;-76
2021/06/08 11:17:27;;;;;;;17.70;15.77;;;28.90;64.20;;;;;;8358132;28;20448;-76
2021/06/08 11:21:30;;;;;;;16.67;14.80;;;29.20;63.20;;;;;;8365602;28;20481;-76
2021/06/08 11:25:34;;;;;;;17.13;14.90;;;29.30;62.40;;;;;;8360508;28;20473;-75
2021/06/08 11:29:45;;;;;;;19.10;14.63;;;29.10;61.90;;;;;;8370638;28;20522;-76
2021/06/08 11:33:48;;;;;;;17.30;13.60;;;29.00;61.80;;;;;;8367559;28;21020;-75
2021/06/08 11:38:01;;;;;;;16.47;14.80;;;28.90;62.60;;;;;;8360942;28;20433;-75
2021/06/08 11:42:08;;;;;;;18.10;14.97;;;29.30;63.50;;;;;;8365214;28;20580;-75
2021/06/08 11:46:11;;;;;;;18.10;16.13;;;29.60;62.90;;;;;;8360063;28;20480;-76
2021/06/08 11:50:12;;;;;;;17.90;15.07;;;30.00;63.50;;;;;;8361901;28;20446;-77
2021/06/08 11:54:31;;;;;;;20.30;13.80;;;30.00;62.50;;;;;;8371874;28;20432;-77
2021/06/08 11:58:37;;;;;;;15.07;13.30;;;30.00;62.20;;;;;;8363510;28;20219;-76
2021/06/08 12:02:46;;;;;;;15.67;14.00;;;30.10;62.50;;;;;;8364175;28;20474;-78
2021/06/08 12:07:05;;;;;;;15.27;13.67;;;30.20;61.50;;;;;;8357221;28;20470;-76
2021/06/08 12:11:15;;;;;;;14.73;13.20;;;30.30;60.10;;;;;;8363368;28;21006;-76
2021/06/08 12:15:28;;;;;;;12.93;11.60;;;30.40;59.20;;;;;;8366796;28;20437;-77
2021/06/08 12:19:34;;;;;;;17.07;12.67;;;30.70;59.30;;;;;;8374503;28;20463;-76
2021/06/08 12:23:38;;;;;;;13.07;11.67;;;30.70;58.00;;;;;;8365009;28;20440;-76
2021/06/08 12:27:45;;;;;;;13.97;11.17;;;30.20;58.70;;;;;;8376392;28;20475;-75
2021/06/08 12:31:58;;;;;;;14.63;13.13;;;29.90;59.20;;;;;;8381555;28;20787;-76
2021/06/08 12:36:10;;;;;;;12.90;11.30;;;29.60;59.50;;;;;;8363721;28;20442;-74
2021/06/08 12:40:19;;;;;;;19.43;12.57;;;29.90;58.00;;;;;;8366972;28;20442;-74
2021/06/08 12:44:28;;;;;;;17.30;13.03;;;29.90;59.30;;;;;;8380512;28;20441;-79
2021/06/08 12:48:29;;;;;;;14.67;12.93;;;30.00;59.30;;;;;;8372142;28;20512;-77
2021/06/08 12:52:29;;;;;;;14.80;10.97;;;30.10;57.70;;;;;;8383135;28;20436;-76
2021/06/08 12:56:30;;;;;;;13.67;12.23;;;30.10;58.50;;;;;;8379811;28;20300;-76
2021/06/08 13:00:34;;;;;;;13.00;11.70;;;30.00;58.30;;;;;;8376709;28;20221;-77
2021/06/08 13:04:40;;;;;;;13.60;11.87;;;30.00;59.30;;;;;;8381106;28;20441;-77
2021/06/08 13:08:44;;;;;;;13.00;11.70;;;29.90;59.30;;;;;;8379151;28;20462;-78
2021/06/08 13:12:51;;;;;;;16.97;15.27;;;29.80;59.40;;;;;;8378339;28;20441;-77
2021/06/08 13:16:53;;;;;;;22.77;16.33;;;29.60;59.50;;;;;;8383921;28;20441;-76
2021/06/08 13:20:58;;;;;;;20.90;17.00;;;29.50;60.00;;;;;;8373996;28;20441;-77
2021/06/08 13:24:59;;;;;;;24.77;19.90;;;29.50;60.60;;;;;;8382784;28;20992;-77
2021/06/08 13:29:17;;;;;;;17.90;16.00;;;29.50;60.30;;;;;;8392646;28;20980;-78
2021/06/08 13:33:25;;;;;;;25.23;15.47;;;29.30;59.30;;;;;;8384525;28;20592;-77
2021/06/08 13:37:29;;;;;;;18.20;15.40;;;29.20;59.00;;;;;;8384743;28;21122;-76
2021/06/08 13:41:33;;;;;;;23.50;18.20;;;29.30;59.00;;;;;;8379599;28;20501;-77
2021/06/08 13:45:37;;;;;;;18.97;16.97;;;29.50;59.80;;;;;;8386830;28;20478;-77
2021/06/08 13:49:46;;;;;;;21.70;17.63;;;29.60;60.00;;;;;;8364013;28;20472;-77
2021/06/08 13:54:09;;;;;;;18.97;16.80;;;29.90;59.50;;;;;;8376022;28;20441;-77
2021/06/08 14:03:00;;;;;;;19.30;17.13;;;29.50;59.00;;;;;;8379356;28;20498;-77
2021/06/08 14:07:01;;;;;;;19.73;17.40;;;29.10;60.40;;;;;;8379480;28;20507;-76
2021/06/08 14:11:03;;;;;;;24.87;21.13;;;28.70;61.00;;;;;;8374236;28;20441;-75
2021/06/08 14:15:13;;;;;;;23.97;20.57;;;28.50;62.60;;;;;;8373385;28;20237;-76
2021/06/08 14:19:18;;;;;;;24.27;20.67;;;28.50;63.00;;;;;;8376076;28;20460;-77
2021/06/08 14:23:18;;;;;;;27.77;20.07;;;28.50;63.90;;;;;;8377821;28;20440;-75
2021/06/08 14:27:20;;;;;;;29.70;20.47;;;28.40;63.30;;;;;;8374194;28;20511;-76
2021/06/08 14:31:21;;;;;;;23.43;17.70;;;28.90;63.90;;;;;;8371932;28;20183;-74
2021/06/08 14:35:22;;;;;;;20.23;16.40;;;29.10;62.50;;;;;;8374390;28;20547;-75
2021/06/08 14:39:22;;;;;;;18.37;16.37;;;29.40;61.20;;;;;;8380677;28;20187;-75
2021/06/08 14:43:24;;;;;;;21.57;17.00;;;29.70;59.60;;;;;;8382154;28;20273;-75
2021/06/08 14:47:25;;;;;;;17.00;14.77;;;29.90;58.10;;;;;;8375460;28;20683;-75
2021/06/08 14:51:26;;;;;;;22.23;17.40;;;29.60;58.60;;;;;;8380787;28;20445;-75
2021/06/08 14:55:26;;;;;;;21.67;18.47;;;29.10;59.00;;;;;;8375799;28;20555;-76
2021/06/08 14:59:27;;;;;;;26.90;21.20;;;28.40;60.80;;;;;;8367793;28;20199;-75
2021/06/08 15:03:28;;;;;;;20.90;18.67;;;28.10;62.60;;;;;;8394446;28;20198;-74
2021/06/08 15:07:29;;;;;;;22.17;19.83;;;27.90;64.40;;;;;;8374767;28;20211;-75
2021/06/08 15:11:30;;;;;;;25.60;19.27;;;28.00;63.50;;;;;;8384099;28;20442;-74
2021/06/08 15:15:31;;;;;;;21.17;19.13;;;28.10;62.50;;;;;;8381182;28;20636;-75
2021/06/08 15:19:31;;;;;;;18.03;16.27;;;28.20;61.00;;;;;;8377035;28;20235;-75
2021/06/08 15:23:32;;;;;;;19.33;16.40;;;28.30;61.60;;;;;;8383620;28;20440;-75
2021/06/08 15:27:35;;;;;;;17.70;15.90;;;28.40;61.60;;;;;;8372191;28;20202;-75
2021/06/08 15:31:36;;;;;;;20.63;16.53;;;28.60;61.20;;;;;;8363368;28;20228;-75
2021/06/08 15:35:39;;;;;;;22.03;19.30;;;28.90;61.20;;;;;;8368633;28;20448;-74
2021/06/08 15:39:40;;;;;;;20.57;18.57;;;28.90;60.50;;;;;;8371805;28;20441;-75
2021/06/08 15:43:40;;;;;;;22.23;17.20;;;28.40;61.00;;;;;;8373946;28;20436;-76
2021/06/08 15:47:42;;;;;;;19.40;17.17;;;28.00;62.70;;;;;;8375199;28;20236;-76
2021/06/08 15:51:45;;;;;;;19.37;17.13;;;27.70;64.50;;;;;;8373339;28;20293;-74
2021/06/08 15:55:46;;;;;;;18.33;16.20;;;27.60;63.40;;;;;;8368631;28;20456;-74
2021/06/08 15:59:47;;;;;;;16.90;14.27;;;28.10;62.00;;;;;;8370832;28;20455;-75
2021/06/08 16:03:48;;;;;;;17.83;14.90;;;28.40;61.30;;;;;;8372899;28;20545;-74
2021/06/08 16:07:50;;;;;;;19.30;16.20;;;28.80;60.60;;;;;;8367091;28;20206;-75
2021/06/08 16:11:51;;;;;;;15.87;14.20;;;28.80;59.80;;;;;;8374512;28;20437;-74
2021/06/08 16:15:52;;;;;;;17.40;15.63;;;28.50;61.50;;;;;;8368949;28;20988;-74
2021/06/08 16:19:52;;;;;;;18.20;15.80;;;28.20;60.80;;;;;;8368068;28;20251;-74
2021/06/08 16:23:53;;;;;;;18.77;15.87;;;27.90;62.20;;;;;;8366632;28;20214;-72
2021/06/08 16:27:55;;;;;;;17.60;15.70;;;27.70;62.60;;;;;;8369743;28;20563;-71
2021/06/08 16:31:55;;;;;;;19.17;17.10;;;27.50;61.80;;;;;;8364427;28;20198;-73
2021/06/08 16:35:56;;;;;;;20.20;14.27;;;27.40;61.70;;;;;;8365540;28;20437;-75
2021/06/08 16:39:58;;;;;;;16.40;14.70;;;27.20;63.40;;;;;;8370974;28;20187;-75
2021/06/08 16:44:00;;;;;;;18.90;16.47;;;27.10;63.90;;;;;;8376129;28;20294;-75
2021/06/08 16:48:00;;;;;;;16.77;15.07;;;27.00;63.80;;;;;;8370212;28;20484;-75
2021/06/08 16:56:23;;;;;;;18.77;13.17;;;27.40;63.30;;;;;;8385505;28;20199;-75
2021/06/08 17:00:24;;;;;;;14.30;12.33;;;27.80;63.40;;;;;;8384514;28;20445;-74
2021/06/08 17:04:25;;;;;;;18.90;13.40;;;28.20;63.30;;;;;;8376377;28;20270;-76
2021/06/08 17:08:29;;;;;;;16.03;13.33;;;28.30;61.80;;;;;;8372723;28;21001;-74
2021/06/08 17:12:30;;;;;;;13.53;12.23;;;28.40;61.90;;;;;;8371023;28;20220;-74
2021/06/08 17:16:33;;;;;;;15.00;13.50;;;28.50;61.30;;;;;;8375126;28;20461;-74
2021/06/08 17:20:34;;;;;;;14.53;12.40;;;28.60;62.00;;;;;;8372468;28;20194;-74
2021/06/08 17:24:34;;;;;;;22.93;14.47;;;28.70;62.00;;;;;;8377350;28;20523;-74
2021/06/08 17:28:35;;;;;;;14.63;13.13;;;28.80;61.50;;;;;;8375946;28;20686;-75
2021/06/08 17:32:36;;;;;;;13.10;11.77;;;28.70;61.20;;;;;;8371554;28;20186;-74
2021/06/08 17:36:37;;;;;;;17.80;13.33;;;28.70;62.30;;;;;;8371075;28;20601;-74
2021/06/08 17:40:37;;;;;;;13.70;12.30;;;28.60;61.40;;;;;;8372967;28;21115;-74
2021/06/08 17:44:39;;;;;;;14.67;13.07;;;28.50;61.70;;;;;;8375027;28;20252;-75
2021/06/08 17:48:40;;;;;;;15.10;13.50;;;28.20;62.40;;;;;;8369211;28;20214;-76
2021/06/08 17:52:41;;;;;;;13.60;12.30;;;28.00;62.70;;;;;;8372251;28;20443;-74
2021/06/08 17:56:41;;;;;;;16.43;13.07;;;27.90;63.30;;;;;;8364734;28;20174;-74
2021/06/08 18:00:42;;;;;;;15.03;13.50;;;27.80;62.90;;;;;;8370535;28;20271;-75
2021/06/08 18:04:43;;;;;;;17.20;13.43;;;27.70;62.30;;;;;;8370016;28;20723;-74
2021/06/08 18:08:43;;;;;;;15.97;14.37;;;27.60;62.80;;;;;;8367631;28;20210;-74
2021/06/08 18:12:44;;;;;;;16.70;15.10;;;27.50;64.40;;;;;;8364864;28;20178;-74
2021/06/08 18:16:47;;;;;;;19.33;15.23;;;27.10;64.50;;;;;;8366501;28;20197;-73
2021/06/08 18:20:48;;;;;;;17.30;15.60;;;26.90;66.30;;;;;;8371948;28;20185;-73
2021/06/08 18:24:56;;;;;;;20.20;15.87;;;26.70;67.40;;;;;;8374893;28;20443;-74
2021/06/08 18:28:57;;;;;;;16.13;14.53;;;26.40;67.00;;;;;;8369073;28;20663;-74
2021/06/08 18:32:57;;;;;;;17.40;15.60;;;26.20;67.40;;;;;;8373990;28;20919;-74
2021/06/08 18:36:58;;;;;;;18.37;16.40;;;26.00;68.30;;;;;;8381892;28;20591;-74
2021/06/08 18:40:59;;;;;;;21.80;18.33;;;25.80;68.30;;;;;;8383524;28;20182;-74
2021/06/08 18:45:00;;;;;;;18.63;16.80;;;25.60;68.40;;;;;;8381008;28;20201;-75
2021/06/08 18:49:01;;;;;;;20.60;16.57;;;25.40;70.30;;;;;;8380756;28;20733;-75
2021/06/08 18:53:03;;;;;;;17.70;15.73;;;25.10;71.70;;;;;;8377344;28;20952;-74
2021/06/08 18:57:05;;;;;;;17.17;15.60;;;24.90;71.40;;;;;;8385366;28;20631;-74
2021/06/08 19:01:09;;;;;;;19.53;17.07;;;24.60;72.80;;;;;;8386100;28;20502;-74
2021/06/08 19:05:10;;;;;;;19.90;15.63;;;24.40;75.00;;;;;;8390958;28;20852;-79
2021/06/08 19:09:12;;;;;;;17.00;15.27;;;24.20;76.90;;;;;;8387346;28;20871;-76
2021/06/08 19:13:13;;;;;;;20.10;17.10;;;23.90;76.90;;;;;;8392899;28;20200;-79
2021/06/08 19:17:17;;;;;;;18.80;16.90;;;23.80;76.50;;;;;;8408262;28;20444;-76
2021/06/08 19:21:18;;;;;;;28.33;19.57;;;23.70;78.20;;;;;;8391092;28;20654;-79
2021/06/08 19:25:19;;;;;;;19.70;17.43;;;23.50;78.90;;;;;;8389436;28;20925;-77
2021/06/08 19:29:20;;;;;;;20.23;18.07;;;23.40;79.20;;;;;;8401675;28;20215;-76
2021/06/08 19:33:24;;;;;;;23.57;19.30;;;23.30;79.70;;;;;;8393952;28;20414;-82
2021/06/08 19:37:26;;;;;;;23.73;19.50;;;23.10;81.10;;;;;;8402590;28;20181;-79
2021/06/08 19:41:27;;;;;;;22.93;20.20;;;23.00;82.30;;;;;;8401463;28;20520;-77
2021/06/08 19:45:32;;;;;;;22.70;20.30;;;22.80;82.60;;;;;;8386511;28;20448;-77
2021/06/08 19:49:32;;;;;;;24.50;21.57;;;22.60;83.50;;;;;;8395272;28;20193;-77
2021/06/08 19:53:34;;;;;;;30.03;20.73;;;22.50;83.80;;;;;;8383639;28;20514;-78
2021/06/08 19:57:37;;;;;;;23.03;19.83;;;22.30;85.20;;;;;;8386906;28;20194;-79
2021/06/08 20:01:38;;;;;;;27.73;22.47;;;22.20;86.30;;;;;;8382005;28;20440;-79
2021/06/08 20:05:39;;;;;;;25.53;21.17;;;22.10;86.70;;;;;;8387527;28;20444;-78
2021/06/08 20:09:42;;;;;;;23.33;20.93;;;22.00;87.80;;;;;;8383226;28;20192;-78
2021/06/08 20:13:43;;;;;;;23.23;20.73;;;21.80;89.60;;;;;;8386426;28;20275;-77
2021/06/08 20:17:44;;;;;;;32.50;21.70;;;21.60;89.90;;;;;;8382712;28;20484;-77
2021/06/08 20:21:44;;;;;;;25.27;21.43;;;21.40;90.60;;;;;;8381880;28;20191;-77
2021/06/08 20:25:45;;;;;;;22.63;19.97;;;21.30;90.80;;;;;;8385607;28;20467;-77
2021/06/08 20:29:48;;;;;;;27.33;21.33;;;21.20;91.00;;;;;;8382470;28;20536;-76
2021/06/08 20:33:50;;;;;;;24.60;21.83;;;21.10;90.90;;;;;;8354444;28;20278;-78
2021/06/08 20:37:58;;;;;;;30.10;23.30;;;21.00;91.40;;;;;;8368057;28;20441;-77
2021/06/08 20:41:59;;;;;;;27.30;22.93;;;20.80;91.20;;;;;;8377365;28;20453;-78
2021/06/08 20:46:08;;;;;;;31.10;24.40;;;20.70;91.60;;;;;;8378586;28;20541;-78